»·PEaware :: N5GL KLGB-KOAK

N5GL :: KLGB-KOAK

FLIGHT INFORMATION

Flight Status: Arrived
Operator: Privately registered:
United States
More flights under this callsign
Pilot: Georg L. (13308)
Aircraft: SOCATA TBM-900
(TBM9)
More flights by this aircraft type
Origin: KLGB Long Beach
United States
Destination: KOAK Metro Oakland Intl
United States
More flights between these airports :: More routes between these airports
Route: +SLI V459 LHS EHF COREZ RGOOD RGOOD PXN V301 SUNOL
File this flight plan on PilotEdge
Remarks:
Altitude:
(Current/Filed)
26,000ft
Speed:
(Current/Filed)
316kts
Departed: 22-Jul-20 07:49 AM
Arrived: 22-Jul-20 09:07 AM
Distance/Time
Traveled:
307nm/1:18
Distance/Time
To Go:
Arrived

Flight Plot

Page will automatically refresh every two minutes.

Flight plan parsing failed; only flown route is shown


Map Options




Map Legend


Flown Route
Filed Route
Departure Airport
Arrival Airport
Navaid (VOR, NDB)
Fix

Horizontal Profiles

Position Reports

Time Latitude Longitude Heading Altitude Ground
Speed
22-Jul-20 07:11 33.811993 -118.151604 6 63ft 0kts
22-Jul-20 07:12 33.811993 -118.151604 6 63ft 0kts
22-Jul-20 07:13 33.811993 -118.151604 6 63ft 0kts
22-Jul-20 07:14 33.811993 -118.151604 6 63ft 0kts
22-Jul-20 07:15 33.811993 -118.151604 6 63ft 0kts
22-Jul-20 07:16 33.811993 -118.151604 6 63ft 0kts
22-Jul-20 07:17 33.811993 -118.151604 6 63ft 0kts
22-Jul-20 07:18 33.811993 -118.151604 6 63ft 0kts
22-Jul-20 07:19 33.811993 -118.151604 6 63ft 0kts
22-Jul-20 07:20 33.817399 -118.145948 89 64ft 0kts
22-Jul-20 07:21 33.811993 -118.151604 6 63ft 0kts
22-Jul-20 07:22 33.811993 -118.151604 6 63ft 0kts
22-Jul-20 07:23 33.811993 -118.151604 6 63ft 0kts
22-Jul-20 07:24 33.811993 -118.151604 6 63ft 0kts
22-Jul-20 07:25 33.811993 -118.151604 6 63ft 0kts
22-Jul-20 07:26 33.811993 -118.151604 6 63ft 0kts
22-Jul-20 07:27 33.811993 -118.151604 6 63ft 0kts
22-Jul-20 07:28 33.811993 -118.151604 6 63ft 0kts
22-Jul-20 07:29 33.811993 -118.151604 6 63ft 0kts
22-Jul-20 07:30 33.811993 -118.151604 6 63ft 0kts
22-Jul-20 07:31 33.811993 -118.151604 6 63ft 0kts
22-Jul-20 07:32 33.811993 -118.151604 6 63ft 0kts
22-Jul-20 07:33 33.811993 -118.151604 6 63ft 0kts
22-Jul-20 07:34 33.811993 -118.151604 6 63ft 0kts
22-Jul-20 07:35 33.811993 -118.151604 6 63ft 0kts
22-Jul-20 07:36 33.811993 -118.151604 6 63ft 0kts
22-Jul-20 07:37 33.811993 -118.151604 6 63ft 0kts
22-Jul-20 07:38 33.811993 -118.151604 6 63ft 0kts
22-Jul-20 07:39 33.811993 -118.151604 6 63ft 0kts
22-Jul-20 07:40 33.811993 -118.151604 6 63ft 0kts
22-Jul-20 07:41 33.811993 -118.151604 6 63ft 0kts
22-Jul-20 07:42 33.811993 -118.151604 6 63ft 0kts
22-Jul-20 07:43 33.811993 -118.151604 6 63ft 0kts
22-Jul-20 07:44 33.813000 -118.151071 46 63ft 8kts
22-Jul-20 07:45 33.813349 -118.147993 356 63ft 0kts
22-Jul-20 07:46 33.813349 -118.147993 356 63ft 0kts
22-Jul-20 07:47 33.813349 -118.147993 356 63ft 0kts
22-Jul-20 07:48 33.813827 -118.155104 270 64ft 98kts
22-Jul-20 07:49 33.808460 -118.190372 212 1725ft 126kts
22-Jul-20 07:50 33.775630 -118.210941 191 3189ft 155kts
22-Jul-20 07:51 33.737173 -118.220830 191 5593ft 135kts
22-Jul-20 07:52 33.698170 -118.230177 191 7059ft 180kts
22-Jul-20 07:53 33.649826 -118.225711 114 8616ft 198kts
22-Jul-20 07:54 33.684335 -118.179549 45 10220ft 211kts
22-Jul-20 07:55 33.726027 -118.127324 46 11701ft 219kts
22-Jul-20 07:56 33.768390 -118.073672 45 13335ft 225kts
22-Jul-20 07:57 33.823585 -118.077953 330 14770ft 219kts
22-Jul-20 07:58 33.879376 -118.109905 330 16244ft 225kts
22-Jul-20 07:59 33.936381 -118.142709 329 17681ft 231kts
22-Jul-20 08:00 33.995054 -118.176507 329 19090ft 237kts
22-Jul-20 08:01 34.055240 -118.211259 328 20499ft 241kts
22-Jul-20 08:02 34.116522 -118.246681 327 21897ft 246kts
22-Jul-20 08:03 34.179587 -118.283195 327 23259ft 252kts
22-Jul-20 08:04 34.243678 -118.320393 326 24594ft 257kts
22-Jul-20 08:05 34.308724 -118.358193 326 25925ft 260kts
22-Jul-20 08:06 34.379226 -118.399283 327 26016ft 297kts
22-Jul-20 08:07 34.455957 -118.444019 327 25994ft 311kts
22-Jul-20 08:08 34.534179 -118.489719 327 25988ft 314kts
22-Jul-20 08:09 34.613113 -118.535953 328 25983ft 315kts
22-Jul-20 08:10 34.691894 -118.582690 326 26015ft 313kts
22-Jul-20 08:11 34.768959 -118.632219 326 26024ft 314kts
22-Jul-20 08:12 34.845522 -118.681523 325 26048ft 314kts
22-Jul-20 08:13 34.922997 -118.731535 325 26058ft 315kts
22-Jul-20 08:14 35.000776 -118.781851 325 26058ft 316kts
22-Jul-20 08:15 35.078651 -118.832342 325 26049ft 317kts
22-Jul-20 08:16 35.138951 -118.871511 326 26029ft 317kts
22-Jul-20 08:17 35.216995 -118.922304 326 26010ft 317kts
22-Jul-20 08:18 35.295342 -118.973408 326 25990ft 318kts
22-Jul-20 08:19 35.373638 -119.024591 326 25969ft 318kts
22-Jul-20 08:20 35.451783 -119.076250 321 25926ft 316kts
22-Jul-20 08:21 35.496287 -119.160546 278 25913ft 294kts
22-Jul-20 08:22 35.514831 -119.258746 278 25901ft 294kts
22-Jul-20 08:23 35.533065 -119.356556 278 25897ft 293kts
22-Jul-20 08:24 35.551346 -119.454467 281 25893ft 295kts
22-Jul-20 08:25 35.605164 -119.533135 314 25897ft 312kts
22-Jul-20 08:26 35.672057 -119.601598 314 25896ft 313kts
22-Jul-20 08:27 35.739017 -119.670132 314 25902ft 313kts
22-Jul-20 08:28 35.806287 -119.739117 314 25902ft 314kts
22-Jul-20 08:29 35.873429 -119.808138 314 25902ft 314kts
22-Jul-20 08:30 35.938579 -119.879711 310 25902ft 313kts
22-Jul-20 08:31 36.001364 -119.954099 310 25902ft 313kts
22-Jul-20 08:32 36.064361 -120.028883 310 25904ft 313kts
22-Jul-20 08:34 36.126134 -120.102401 310 25907ft 312kts
22-Jul-20 08:35 36.188794 -120.176889 310 25915ft 312kts
22-Jul-20 08:36 36.253057 -120.249545 311 25924ft 312kts
22-Jul-20 08:37 36.317069 -120.322330 312 25924ft 313kts
22-Jul-20 08:38 36.381280 -120.395439 312 25924ft 313kts
22-Jul-20 08:39 36.445708 -120.468976 312 25629ft 322kts
22-Jul-20 08:40 36.513419 -120.546432 313 24629ft 332kts
22-Jul-20 08:41 36.581425 -120.624416 313 23617ft 333kts
22-Jul-20 08:42 36.648971 -120.702056 313 22606ft 334kts
22-Jul-20 08:43 36.717828 -120.781375 313 21214ft 337kts
22-Jul-20 08:44 36.786318 -120.859573 314 19820ft 332kts
22-Jul-20 08:45 36.854305 -120.937373 314 18420ft 330kts
22-Jul-20 08:46 36.921303 -121.014219 314 17024ft 325kts
22-Jul-20 08:47 36.987313 -121.090139 315 15633ft 320kts
22-Jul-20 08:48 37.052498 -121.165277 315 14234ft 317kts
22-Jul-20 08:49 37.116046 -121.238733 315 12833ft 305kts
22-Jul-20 08:50 37.178114 -121.310611 316 11425ft 303kts
22-Jul-20 08:51 37.239664 -121.382085 316 10009ft 297kts
22-Jul-20 08:52 37.300116 -121.452429 316 8601ft 295kts
22-Jul-20 08:52 37.352416 -121.507396 323 7421ft 289kts
22-Jul-20 08:54 37.426030 -121.575832 323 5994ft 261kts
22-Jul-20 08:54 37.471921 -121.618685 323 5997ft 240kts
22-Jul-20 08:55 37.525301 -121.668509 322 5999ft 236kts
22-Jul-20 08:56 37.577211 -121.717040 323 5998ft 231kts
22-Jul-20 08:57 37.626993 -121.767593 296 5963ft 231kts
22-Jul-20 08:58 37.645308 -121.842972 263 5297ft 209kts
22-Jul-20 08:59 37.640423 -121.916654 263 3957ft 207kts
22-Jul-20 09:00 37.652277 -121.979180 288 3645ft 170kts
22-Jul-20 09:01 37.669149 -122.032131 289 2796ft 161kts
22-Jul-20 09:02 37.685652 -122.083366 289 1982ft 158kts
22-Jul-20 09:03 37.699956 -122.127690 291 1333ft 113kts
22-Jul-20 09:04 37.710734 -122.161094 289 756ft 98kts
22-Jul-20 09:05 37.720755 -122.192070 289 264ft 90kts
22-Jul-20 09:06 37.728058 -122.214794 292 10ft 17kts
22-Jul-20 09:07 37.728751 -122.213945 24 10ft 0kts
22-Jul-20 09:08 37.729930 -122.213920 38 10ft 5kts
22-Jul-20 09:09 37.730354 -122.213705 309 10ft 0kts
22-Jul-20 09:10 37.730354 -122.213705 309 10ft 0kts
22-Jul-20 09:11 37.730354 -122.213706 309 10ft 0kts
22-Jul-20 09:12 37.730354 -122.213705 309 10ft 0kts
22-Jul-20 09:13 37.730354 -122.213705 309 10ft 0kts
22-Jul-20 09:14 37.730354 -122.213705 309 10ft 0kts
22-Jul-20 09:15 37.730354 -122.213705 309 10ft 0kts
22-Jul-20 09:16 37.730354 -122.213705 309 10ft 0kts

Navigation Log

Ident Type
Flight plan parsing failed, navigation log unavailable